sensor_id;sensor_type;location;lat;lon;timestamp;P1;durP1;ratioP1;P2;durP2;ratioP2
81365;SDS011;70822;51.990;22.766;2023-06-26T00:02:58;8.37;;;4.70;;
81365;SDS011;70822;51.990;22.766;2023-06-26T00:18:02;6.17;;;3.93;;
81365;SDS011;70822;51.990;22.766;2023-06-26T00:33:05;7.27;;;3.77;;
81365;SDS011;70822;51.990;22.766;2023-06-26T00:48:10;6.90;;;4.70;;
81365;SDS011;70822;51.990;22.766;2023-06-26T01:03:16;8.63;;;4.77;;
81365;SDS011;70822;51.990;22.766;2023-06-26T01:18:20;7.43;;;4.30;;
81365;SDS011;70822;51.990;22.766;2023-06-26T01:33:24;6.10;;;3.87;;
81365;SDS011;70822;51.990;22.766;2023-06-26T01:48:30;7.13;;;3.93;;
81365;SDS011;70822;51.990;22.766;2023-06-26T02:03:37;6.70;;;4.03;;
81365;SDS011;70822;51.990;22.766;2023-06-26T02:18:41;6.77;;;4.40;;
81365;SDS011;70822;51.990;22.766;2023-06-26T02:33:44;6.03;;;3.37;;
81365;SDS011;70822;51.990;22.766;2023-06-26T02:48:47;4.80;;;3.03;;
81365;SDS011;70822;51.990;22.766;2023-06-26T03:03:51;7.57;;;4.50;;
81365;SDS011;70822;51.990;22.766;2023-06-26T03:18:54;8.73;;;4.70;;
81365;SDS011;70822;51.990;22.766;2023-06-26T03:33:58;8.70;;;4.10;;
81365;SDS011;70822;51.990;22.766;2023-06-26T03:49:01;7.87;;;4.73;;
81365;SDS011;70822;51.990;22.766;2023-06-26T04:04:04;7.63;;;4.47;;
81365;SDS011;70822;51.990;22.766;2023-06-26T04:19:08;6.80;;;4.40;;
81365;SDS011;70822;51.990;22.766;2023-06-26T04:34:13;7.27;;;5.30;;
81365;SDS011;70822;51.990;22.766;2023-06-26T04:49:16;7.03;;;5.27;;
81365;SDS011;70822;51.990;22.766;2023-06-26T05:04:20;6.20;;;5.43;;
81365;SDS011;70822;51.990;22.766;2023-06-26T05:19:25;4.53;;;4.13;;
81365;SDS011;70822;51.990;22.766;2023-06-26T05:34:28;6.73;;;5.37;;
81365;SDS011;70822;51.990;22.766;2023-06-26T05:49:31;5.37;;;4.77;;
81365;SDS011;70822;51.990;22.766;2023-06-26T06:04:34;4.33;;;3.93;;
81365;SDS011;70822;51.990;22.766;2023-06-26T06:19:39;5.10;;;4.03;;
81365;SDS011;70822;51.990;22.766;2023-06-26T06:34:43;4.87;;;3.07;;
81365;SDS011;70822;51.990;22.766;2023-06-26T06:49:45;3.27;;;2.50;;
81365;SDS011;70822;51.990;22.766;2023-06-26T07:04:48;4.10;;;2.63;;
81365;SDS011;70822;51.990;22.766;2023-06-26T07:19:51;3.53;;;2.60;;
81365;SDS011;70822;51.990;22.766;2023-06-26T07:34:54;4.63;;;2.13;;
81365;SDS011;70822;51.990;22.766;2023-06-26T07:49:58;3.47;;;2.23;;
81365;SDS011;70822;51.990;22.766;2023-06-26T08:05:01;2.90;;;2.30;;
81365;SDS011;70822;51.990;22.766;2023-06-26T08:20:05;2.23;;;1.80;;
81365;SDS011;70822;51.990;22.766;2023-06-26T08:35:10;2.47;;;1.70;;
81365;SDS011;70822;51.990;22.766;2023-06-26T08:50:14;3.30;;;1.97;;
81365;SDS011;70822;51.990;22.766;2023-06-26T09:05:20;2.50;;;1.80;;
81365;SDS011;70822;51.990;22.766;2023-06-26T09:20:23;4.30;;;2.27;;
81365;SDS011;70822;51.990;22.766;2023-06-26T09:35:28;3.87;;;2.30;;
81365;SDS011;70822;51.990;22.766;2023-06-26T09:50:32;2.47;;;1.80;;
81365;SDS011;70822;51.990;22.766;2023-06-26T10:05:40;3.57;;;2.27;;
81365;SDS011;70822;51.990;22.766;2023-06-26T10:20:44;3.50;;;2.20;;
81365;SDS011;70822;51.990;22.766;2023-06-26T10:35:49;2.57;;;2.30;;
81365;SDS011;70822;51.990;22.766;2023-06-26T10:50:53;3.80;;;2.27;;
81365;SDS011;70822;51.990;22.766;2023-06-26T11:06:17;4.13;;;2.50;;
81365;SDS011;70822;51.990;22.766;2023-06-26T11:21:20;5.67;;;2.43;;
81365;SDS011;70822;51.990;22.766;2023-06-26T11:36:28;4.53;;;2.47;;
81365;SDS011;70822;51.990;22.766;2023-06-26T11:51:32;4.03;;;3.03;;
81365;SDS011;70822;51.990;22.766;2023-06-26T12:06:37;3.87;;;2.83;;
81365;SDS011;70822;51.990;22.766;2023-06-26T12:21:47;3.80;;;2.80;;
81365;SDS011;70822;51.990;22.766;2023-06-26T12:36:59;4.90;;;3.40;;
81365;SDS011;70822;51.990;22.766;2023-06-26T12:52:11;4.30;;;3.10;;
81365;SDS011;70822;51.990;22.766;2023-06-26T13:07:15;5.03;;;3.33;;
81365;SDS011;70822;51.990;22.766;2023-06-26T13:22:18;4.70;;;3.07;;
81365;SDS011;70822;51.990;22.766;2023-06-26T13:37:21;5.30;;;3.40;;
81365;SDS011;70822;51.990;22.766;2023-06-26T13:52:24;4.30;;;2.90;;
81365;SDS011;70822;51.990;22.766;2023-06-26T14:07:27;5.20;;;3.20;;
81365;SDS011;70822;51.990;22.766;2023-06-26T14:22:30;5.70;;;2.80;;
81365;SDS011;70822;51.990;22.766;2023-06-26T14:37:35;6.40;;;3.20;;
81365;SDS011;70822;51.990;22.766;2023-06-26T14:52:41;3.67;;;2.90;;
81365;SDS011;70822;51.990;22.766;2023-06-26T15:07:44;4.80;;;2.97;;
81365;SDS011;70822;51.990;22.766;2023-06-26T15:22:47;8.13;;;3.13;;
81365;SDS011;70822;51.990;22.766;2023-06-26T15:37:50;15.33;;;3.63;;
81365;SDS011;70822;51.990;22.766;2023-06-26T15:52:53;3.80;;;2.60;;
81365;SDS011;70822;51.990;22.766;2023-06-26T16:07:57;3.00;;;2.30;;
81365;SDS011;70822;51.990;22.766;2023-06-26T16:23:00;5.83;;;2.77;;
81365;SDS011;70822;51.990;22.766;2023-06-26T16:38:04;8.77;;;2.70;;
81365;SDS011;70822;51.990;22.766;2023-06-26T16:53:11;5.20;;;2.80;;
81365;SDS011;70822;51.990;22.766;2023-06-26T17:08:15;3.90;;;2.67;;
81365;SDS011;70822;51.990;22.766;2023-06-26T17:23:19;4.10;;;2.57;;
81365;SDS011;70822;51.990;22.766;2023-06-26T17:38:44;7.07;;;4.47;;
81365;SDS011;70822;51.990;22.766;2023-06-26T17:53:47;4.50;;;3.00;;
81365;SDS011;70822;51.990;22.766;2023-06-26T18:08:53;5.33;;;3.40;;
81365;SDS011;70822;51.990;22.766;2023-06-26T18:39:00;5.63;;;3.40;;
81365;SDS011;70822;51.990;22.766;2023-06-26T18:54:03;9.63;;;3.63;;
81365;SDS011;70822;51.990;22.766;2023-06-26T19:09:06;10.00;;;4.40;;
81365;SDS011;70822;51.990;22.766;2023-06-26T19:24:10;7.90;;;3.33;;
81365;SDS011;70822;51.990;22.766;2023-06-26T19:39:13;7.33;;;4.37;;
81365;SDS011;70822;51.990;22.766;2023-06-26T19:54:16;7.07;;;4.00;;
81365;SDS011;70822;51.990;22.766;2023-06-26T20:09:19;6.27;;;3.80;;
81365;SDS011;70822;51.990;22.766;2023-06-26T20:24:22;11.10;;;4.43;;
81365;SDS011;70822;51.990;22.766;2023-06-26T20:39:25;7.93;;;4.53;;
81365;SDS011;70822;51.990;22.766;2023-06-26T20:54:29;8.00;;;4.90;;
81365;SDS011;70822;51.990;22.766;2023-06-26T21:09:34;7.50;;;5.20;;
81365;SDS011;70822;51.990;22.766;2023-06-26T21:24:37;7.67;;;5.17;;
81365;SDS011;70822;51.990;22.766;2023-06-26T21:39:40;6.90;;;5.03;;
81365;SDS011;70822;51.990;22.766;2023-06-26T21:54:43;14.20;;;7.30;;
81365;SDS011;70822;51.990;22.766;2023-06-26T22:09:46;24.43;;;10.60;;
81365;SDS011;70822;51.990;22.766;2023-06-26T22:24:50;33.00;;;14.60;;
81365;SDS011;70822;51.990;22.766;2023-06-26T22:39:54;28.03;;;12.20;;
81365;SDS011;70822;51.990;22.766;2023-06-26T22:54:57;9.60;;;6.60;;
81365;SDS011;70822;51.990;22.766;2023-06-26T23:10:01;11.40;;;6.10;;
81365;SDS011;70822;51.990;22.766;2023-06-26T23:25:05;12.53;;;6.40;;
81365;SDS011;70822;51.990;22.766;2023-06-26T23:40:08;14.93;;;6.40;;
81365;SDS011;70822;51.990;22.766;2023-06-26T23:55:12;7.73;;;5.43;;
